CST,Max TemperatureF,Mean TemperatureF,Min TemperatureF,Max Dew PointF,MeanDew PointF,Min DewpointF,Max Humidity, Mean Humidity, Min Humidity, Max Sea Level PressureIn, Mean Sea Level PressureIn, Min Sea Level PressureIn, Max VisibilityMiles, Mean VisibilityMiles, Min VisibilityMiles, Max Wind SpeedMPH, Mean Wind SpeedMPH, Max Gust SpeedMPH,PrecipitationIn, CloudCover, Events, WindDirDegrees
2012-12-1,51,42,32,50,43,30,100,98,93,29.97,29.82,29.72,4,2,0,21,12,26,0.00,6,Fog,213
2012-12-2,60,46,32,45,38,28,100,83,48,30.00,29.89,29.77,10,6,0,18,11,,0.00,1,Fog,140
2012-12-3,57,47,35,54,39,23,100,72,41,30.04,29.77,29.58,10,7,0,30,16,38,0.00,3,Fog,267
2012-12-4,51,38,24,27,22,18,75,56,33,30.33,30.19,30.04,10,10,10,15,11,,0.00,0,,314
2012-12-5,48,34,19,30,23,14,86,60,43,30.34,30.09,29.85,10,10,10,25,16,34,0.00,2,,147
2012-12-6,48,42,37,39,32,27,87,67,43,29.99,29.90,29.80,10,10,6,23,15,32,0.01,5,Rain,302
2012-12-7,37,32,28,30,25,23,100,81,65,29.99,29.95,29.91,10,8,0,16,11,17,0.00,7,Rain-Snow,45
2012-12-8,33,28,23,32,27,23,100,94,75,30.00,29.93,29.83,10,5,0,21,10,24,0.00,7,Fog-Snow,104
2012-12-9,35,24,12,34,22,7,100,90,79,30.00,29.86,29.79,10,6,2,31,16,38,0.00,8,Rain-Snow,258
2012-12-10,23,12,1,9,3,-4,79,66,46,29.99,29.92,29.82,10,10,10,24,16,33,0.00,2,Snow,261
2012-12-11,35,26,17,25,18,10,86,73,56,29.93,29.89,29.82,10,10,10,21,12,28,0.00,2,,241
2012-12-12,50,36,21,18,16,14,80,47,26,29.93,29.89,29.84,10,10,10,31,17,39,0.00,0,,195
2012-12-13,46,34,23,23,19,14,93,55,39,30.07,29.97,29.87,10,10,7,23,15,28,0.00,0,,239
2012-12-14,51,34,17,36,25,16,93,71,43,30.06,29.88,29.62,10,8,4,18,10,24,0.00,2,,125
2012-12-15,44,38,32,43,38,32,100,98,76,29.65,29.53,29.46,10,4,0,21,12,28,0.36,8,Fog-Rain,250
2012-12-16,32,26,21,30,24,19,100,91,80,29.79,29.73,29.65,10,7,1,16,11,21,0.00,5,,338
2012-12-17,30,26,21,30,24,19,100,96,93,29.75,29.68,29.61,9,5,1,13,7,,0.00,8,Snow,122
2012-12-18,32,30,28,32,29,27,100,97,93,29.83,29.64,29.45,6,3,0,18,12,23,0.00,7,Fog,284
2012-12-19,37,30,24,34,29,23,100,95,81,29.94,29.87,29.82,10,4,0,28,9,36,0.00,6,Rain-Snow,58
2012-12-20,23,16,10,23,14,5,100,87,79,30.12,29.93,29.80,10,4,0,36,25,43,0.00,5,Rain-Snow,330
2012-12-21,21,12,3,14,7,0,86,80,73,30.26,30.20,30.12,10,10,9,17,11,,0.00,0,,259
2012-12-22,28,19,10,23,14,7,93,80,73,30.14,29.98,29.89,10,10,8,21,12,21,0.00,0,,259
2012-12-23,17,12,8,18,11,5,100,91,85,30.02,29.99,29.94,10,6,1,17,11,20,0.00,6,Snow,36
2012-12-24,15,8,0,14,6,-6,93,81,67,30.24,30.06,29.95,10,8,3,22,14,24,0.00,5,Snow,341
2012-12-25,10,4,-2,3,-2,-8,85,77,72,30.44,30.35,30.24,10,10,10,18,14,22,0.00,1,,6
2012-12-26,17,8,0,12,3,-4,93,78,62,30.32,30.22,30.12,10,10,6,15,9,20,0.00,3,,41
2012-12-27,19,12,6,18,12,3,93,89,85,30.15,30.06,29.98,10,7,0,16,10,22,0.00,5,Snow,99
2012-12-28,21,14,8,19,15,5,100,91,85,30.04,29.97,29.93,8,4,0,15,9,,0.00,7,Rain-Snow,19
2012-12-29,12,9,6,10,6,3,92,87,85,30.16,30.10,30.03,10,5,0,17,13,20,0.00,6,Fog-Snow,271
2012-12-30,32,19,6,25,15,3,93,83,74,30.17,30.02,29.88,10,10,8,22,12,29,0.00,0,,221
2012-12-31,19,10,0,16,8,-8,93,81,72,30.22,30.14,30.02,10,10,6,18,13,22,0.00,3,,360